TYPHON7 LOXZ-LOXZ
Flight info
| Callsign | TYPHON7 |
|---|---|
| Flight time | 0h 36m |
| Altitude | 10000 |
| Route | DCT LOXZ |
| Aircraft | EUFI/M-X/0033 |
Departure
| Time | 2026-05-07 08:50 |
|---|---|
| Airport | Hinterstoisser Air Base (LOXZ) |
Arrival
| Time | 2026-05-07 09:26 |
|---|---|
| Airport | Hinterstoisser Air Base (LOXZ) |
| Time | Latitude | Longitude | Altitude | Speed | Heading |
|---|---|---|---|---|---|
| 2026-05-07 08:46 | 47.19969 | 14.72603 | 2268 ft | 0 kts | 350° |
| 2026-05-07 08:46 | 47.20065 | 14.72683 | 2266 ft | 0 kts | 81° |
| 2026-05-07 08:50 | 47.20097 | 14.72985 | 2265 ft | 86 kts | 81° |
| 2026-05-07 08:50 | 47.20275 | 14.74446 | 2280 ft | 192 kts | 81° |
| 2026-05-07 08:50 | 47.20449 | 14.76817 | 2872 ft | 275 kts | 81° |
| 2026-05-07 08:50 | 47.19775 | 14.79630 | 3651 ft | 348 kts | 146° |
| 2026-05-07 08:51 | 47.17526 | 14.81513 | 4427 ft | 391 kts | 154° |
| 2026-05-07 08:51 | 47.14966 | 14.83050 | 5785 ft | 412 kts | 160° |
| 2026-05-07 08:51 | 47.11755 | 14.84759 | 7506 ft | 544 kts | 162° |
| 2026-05-07 08:51 | 47.08188 | 14.86634 | 9327 ft | 563 kts | 161° |
| 2026-05-07 08:52 | 47.04447 | 14.88594 | 9565 ft | 569 kts | 162° |
| 2026-05-07 08:52 | 47.00717 | 14.90547 | 9485 ft | 570 kts | 162° |
| 2026-05-07 08:52 | 46.96974 | 14.92505 | 9466 ft | 571 kts | 162° |
| 2026-05-07 08:52 | 46.93219 | 14.94464 | 9480 ft | 574 kts | 162° |
| 2026-05-07 08:53 | 46.89456 | 14.96422 | 9469 ft | 572 kts | 162° |
| 2026-05-07 08:53 | 46.85706 | 14.98371 | 9484 ft | 573 kts | 162° |
| 2026-05-07 08:53 | 46.81937 | 15.00326 | 9480 ft | 574 kts | 162° |
| 2026-05-07 08:53 | 46.78322 | 15.02768 | 9394 ft | 580 kts | 147° |
| 2026-05-07 08:54 | 46.75546 | 15.07026 | 9120 ft | 582 kts | 122° |
| 2026-05-07 08:54 | 46.73724 | 15.12323 | 9240 ft | 587 kts | 117° |
| 2026-05-07 08:54 | 46.71966 | 15.17598 | 9382 ft | 587 kts | 117° |
| 2026-05-07 08:54 | 46.70585 | 15.23143 | 9090 ft | 587 kts | 96° |
| 2026-05-07 08:55 | 46.71022 | 15.29046 | 8952 ft | 583 kts | 81° |
| 2026-05-07 08:55 | 46.71704 | 15.34917 | 9284 ft | 589 kts | 81° |
| 2026-05-07 08:55 | 46.72391 | 15.40819 | 9415 ft | 590 kts | 81° |
| 2026-05-07 08:55 | 46.73078 | 15.46714 | 9468 ft | 592 kts | 81° |
| 2026-05-07 08:56 | 46.73768 | 15.52646 | 9471 ft | 592 kts | 81° |
| 2026-05-07 08:56 | 46.74454 | 15.58564 | 9477 ft | 590 kts | 81° |
| 2026-05-07 08:56 | 46.75139 | 15.64471 | 9481 ft | 591 kts | 80° |
| 2026-05-07 08:56 | 46.76715 | 15.69951 | 9040 ft | 589 kts | 52° |
| 2026-05-07 08:57 | 46.79344 | 15.74426 | 9381 ft | 608 kts | 48° |
| 2026-05-07 08:57 | 46.82217 | 15.79034 | 9496 ft | 610 kts | 47° |
| 2026-05-07 08:57 | 46.85097 | 15.83616 | 9478 ft | 615 kts | 47° |
| 2026-05-07 08:57 | 46.87995 | 15.88227 | 9470 ft | 614 kts | 47° |
| 2026-05-07 08:58 | 46.90895 | 15.92838 | 9477 ft | 615 kts | 47° |
| 2026-05-07 08:58 | 46.93795 | 15.97451 | 9473 ft | 617 kts | 47° |
| 2026-05-07 08:58 | 46.96684 | 16.02080 | 9467 ft | 616 kts | 48° |
| 2026-05-07 08:58 | 46.99530 | 16.06791 | 9467 ft | 618 kts | 48° |
| 2026-05-07 08:59 | 47.02377 | 16.11507 | 9468 ft | 617 kts | 48° |
| 2026-05-07 08:59 | 47.05187 | 16.16169 | 9470 ft | 618 kts | 48° |
| 2026-05-07 08:59 | 47.08068 | 16.20835 | 9428 ft | 617 kts | 42° |
| 2026-05-07 08:59 | 47.11782 | 16.23899 | 8941 ft | 611 kts | 13° |
| 2026-05-07 09:00 | 47.15976 | 16.24558 | 9053 ft | 610 kts | 0° |
| 2026-05-07 09:00 | 47.20234 | 16.24532 | 9314 ft | 610 kts | 358° |
| 2026-05-07 09:00 | 47.24510 | 16.24387 | 9423 ft | 614 kts | 357° |
| 2026-05-07 09:00 | 47.28770 | 16.24228 | 9464 ft | 615 kts | 357° |
| 2026-05-07 09:01 | 47.33040 | 16.24068 | 9476 ft | 612 kts | 357° |
| 2026-05-07 09:01 | 47.37309 | 16.23907 | 9481 ft | 615 kts | 357° |
| 2026-05-07 09:01 | 47.41517 | 16.23543 | 9470 ft | 612 kts | 354° |
| 2026-05-07 09:01 | 47.45756 | 16.22830 | 9469 ft | 612 kts | 351° |
| 2026-05-07 09:02 | 47.49952 | 16.21799 | 9477 ft | 613 kts | 348° |
| 2026-05-07 09:02 | 47.54063 | 16.20432 | 9466 ft | 571 kts | 344° |
| 2026-05-07 09:02 | 47.57563 | 16.18987 | 8754 ft | 486 kts | 343° |
| 2026-05-07 09:02 | 47.60672 | 16.17679 | 7193 ft | 447 kts | 343° |
| 2026-05-07 09:03 | 47.63580 | 16.16456 | 5749 ft | 423 kts | 343° |
| 2026-05-07 09:03 | 47.66397 | 16.15631 | 4282 ft | 404 kts | 356° |
| 2026-05-07 09:03 | 47.69126 | 16.15637 | 3156 ft | 383 kts | 5° |
| 2026-05-07 09:03 | 47.71636 | 16.16169 | 2992 ft | 342 kts | 9° |
| 2026-05-07 09:04 | 47.73872 | 16.16697 | 2981 ft | 307 kts | 9° |
| 2026-05-07 09:04 | 47.75877 | 16.17169 | 2978 ft | 275 kts | 9° |
| 2026-05-07 09:04 | 47.77650 | 16.17587 | 2902 ft | 248 kts | 9° |
| 2026-05-07 09:04 | 47.79257 | 16.17966 | 2813 ft | 219 kts | 9° |
| 2026-05-07 09:05 | 47.80720 | 16.18310 | 2789 ft | 214 kts | 9° |
| 2026-05-07 09:05 | 47.82174 | 16.18655 | 2793 ft | 211 kts | 9° |
| 2026-05-07 09:05 | 47.83592 | 16.19248 | 2650 ft | 211 kts | 33° |
| 2026-05-07 09:05 | 47.84476 | 16.20916 | 2526 ft | 212 kts | 73° |
| 2026-05-07 09:06 | 47.84605 | 16.23090 | 1836 ft | 218 kts | 96° |
| 2026-05-07 09:06 | 47.84432 | 16.25257 | 1378 ft | 205 kts | 99° |
| 2026-05-07 09:06 | 47.84187 | 16.27521 | 1817 ft | 231 kts | 100° |
| 2026-05-07 09:06 | 47.83728 | 16.30173 | 5614 ft | 285 kts | 118° |
| 2026-05-07 09:07 | 47.82161 | 16.31146 | 5511 ft | 281 kts | 229° |
| 2026-05-07 09:07 | 47.80946 | 16.28235 | 4096 ft | 383 kts | 243° |
| 2026-05-07 09:07 | 47.79807 | 16.24174 | 3221 ft | 457 kts | 245° |
| 2026-05-07 09:07 | 47.78050 | 16.20152 | 3859 ft | 452 kts | 222° |
| 2026-05-07 09:08 | 47.75881 | 16.21411 | 6075 ft | 471 kts | 83° |
| 2026-05-07 09:08 | 47.78151 | 16.23974 | 4165 ft | 442 kts | 349° |
| 2026-05-07 09:08 | 47.80932 | 16.22709 | 3547 ft | 396 kts | 343° |
| 2026-05-07 09:08 | 47.83381 | 16.22293 | 2710 ft | 320 kts | 19° |
| 2026-05-07 09:09 | 47.84792 | 16.24364 | 2368 ft | 275 kts | 83° |
| 2026-05-07 09:09 | 47.84275 | 16.27157 | 2019 ft | 351 kts | 104° |
| 2026-05-07 09:09 | 47.85152 | 16.30688 | 3244 ft | 424 kts | 32° |
| 2026-05-07 09:09 | 47.88175 | 16.32466 | 2921 ft | 529 kts | 14° |
| 2026-05-07 09:10 | 47.91092 | 16.29656 | 2793 ft | 569 kts | 278° |
| 2026-05-07 09:10 | 47.90003 | 16.24067 | 3846 ft | 562 kts | 243° |
| 2026-05-07 09:10 | 47.88024 | 16.19338 | 4062 ft | 517 kts | 232° |
| 2026-05-07 09:10 | 47.86351 | 16.14981 | 4771 ft | 467 kts | 258° |
| 2026-05-07 09:11 | 47.86416 | 16.10167 | 3857 ft | 475 kts | 278° |
| 2026-05-07 09:11 | 47.87069 | 16.05292 | 2816 ft | 472 kts | 289° |
| 2026-05-07 09:11 | 47.87770 | 16.00720 | 2508 ft | 445 kts | 279° |
| 2026-05-07 09:11 | 47.89260 | 15.97113 | 2463 ft | 412 kts | 286° |
| 2026-05-07 09:12 | 47.88690 | 15.93119 | 2242 ft | 408 kts | 244° |
| 2026-05-07 09:12 | 47.87387 | 15.89366 | 2285 ft | 398 kts | 253° |
| 2026-05-07 09:12 | 47.86700 | 15.85491 | 3273 ft | 380 kts | 256° |
| 2026-05-07 09:12 | 47.86159 | 15.81633 | 3827 ft | 400 kts | 265° |
| 2026-05-07 09:13 | 47.86387 | 15.76928 | 4069 ft | 506 kts | 282° |
| 2026-05-07 09:13 | 47.87616 | 15.72018 | 3677 ft | 508 kts | 309° |
| 2026-05-07 09:13 | 47.90158 | 15.68452 | 3716 ft | 495 kts | 313° |
| 2026-05-07 09:13 | 47.92039 | 15.64185 | 3793 ft | 496 kts | 296° |
| 2026-05-07 09:14 | 47.93905 | 15.59848 | 2894 ft | 502 kts | 324° |
| 2026-05-07 09:14 | 47.97064 | 15.57771 | 2222 ft | 508 kts | 334° |
| 2026-05-07 09:14 | 47.99840 | 15.55085 | 3265 ft | 435 kts | 284° |
| 2026-05-07 09:14 | 47.99643 | 15.50677 | 4714 ft | 431 kts | 267° |
| 2026-05-07 09:15 | 47.99592 | 15.45979 | 3121 ft | 478 kts | 275° |
| 2026-05-07 09:15 | 47.98767 | 15.41473 | 3052 ft | 463 kts | 218° |
| 2026-05-07 09:15 | 47.96474 | 15.38531 | 4025 ft | 440 kts | 243° |
| 2026-05-07 09:15 | 47.96098 | 15.33690 | 3358 ft | 512 kts | 275° |
| 2026-05-07 09:16 | 47.95830 | 15.28212 | 3014 ft | 548 kts | 257° |
| 2026-05-07 09:16 | 47.95219 | 15.22682 | 2666 ft | 502 kts | 288° |
| 2026-05-07 09:16 | 47.97043 | 15.18824 | 2350 ft | 461 kts | 323° |
| 2026-05-07 09:16 | 47.99588 | 15.16129 | 2014 ft | 440 kts | 335° |
| 2026-05-07 09:17 | 48.01764 | 15.13641 | 2893 ft | 382 kts | 292° |
| 2026-05-07 09:17 | 48.00901 | 15.10807 | 3544 ft | 365 kts | 194° |
| 2026-05-07 09:17 | 47.98227 | 15.09930 | 4669 ft | 417 kts | 194° |
| 2026-05-07 09:17 | 47.96252 | 15.09271 | 5358 ft | 441 kts | 194° |
| 2026-05-07 09:18 | 47.93172 | 15.08231 | 6209 ft | 472 kts | 193° |
| 2026-05-07 09:18 | 47.89884 | 15.07107 | 6230 ft | 507 kts | 193° |
| 2026-05-07 09:18 | 47.86313 | 15.05848 | 6254 ft | 533 kts | 194° |
| 2026-05-07 09:18 | 47.82695 | 15.04526 | 6281 ft | 550 kts | 194° |
| 2026-05-07 09:19 | 47.78946 | 15.03115 | 6335 ft | 561 kts | 195° |
| 2026-05-07 09:19 | 47.74998 | 15.01571 | 6389 ft | 661 kts | 195° |
| 2026-05-07 09:19 | 47.70072 | 14.99525 | 6461 ft | 795 kts | 196° |
| 2026-05-07 09:19 | 47.64481 | 14.97063 | 6495 ft | 873 kts | 197° |
| 2026-05-07 09:20 | 47.58477 | 14.94623 | 6989 ft | 914 kts | 192° |
| 2026-05-07 09:20 | 47.52482 | 14.93018 | 7746 ft | 747 kts | 189° |
| 2026-05-07 09:20 | 47.48176 | 14.92043 | 8240 ft | 537 kts | 188° |
| 2026-05-07 09:20 | 47.44859 | 14.92113 | 7763 ft | 440 kts | 156° |
| 2026-05-07 09:21 | 47.42779 | 14.95172 | 5615 ft | 418 kts | 130° |
| 2026-05-07 09:21 | 47.40719 | 14.97882 | 4352 ft | 373 kts | 167° |
| 2026-05-07 09:21 | 47.38325 | 14.98210 | 4244 ft | 331 kts | 167° |
| 2026-05-07 09:21 | 47.36298 | 14.99663 | 3233 ft | 326 kts | 140° |
| 2026-05-07 09:22 | 47.34536 | 15.01039 | 3365 ft | 261 kts | 192° |
| 2026-05-07 09:22 | 47.33060 | 14.99684 | 3111 ft | 248 kts | 225° |
| 2026-05-07 09:22 | 47.32032 | 14.97876 | 3255 ft | 222 kts | 230° |
| 2026-05-07 09:22 | 47.30998 | 14.96232 | 3113 ft | 218 kts | 224° |
| 2026-05-07 09:23 | 47.29843 | 14.94749 | 2961 ft | 223 kts | 218° |
| 2026-05-07 09:23 | 47.28592 | 14.93376 | 2937 ft | 221 kts | 218° |
| 2026-05-07 09:23 | 47.27439 | 14.91946 | 3075 ft | 212 kts | 221° |
| 2026-05-07 09:23 | 47.26382 | 14.90477 | 3204 ft | 213 kts | 225° |
| 2026-05-07 09:24 | 47.25369 | 14.88874 | 3357 ft | 214 kts | 229° |
| 2026-05-07 09:24 | 47.24289 | 14.87376 | 3492 ft | 214 kts | 220° |
| 2026-05-07 09:24 | 47.23150 | 14.85992 | 3606 ft | 204 kts | 219° |
| 2026-05-07 09:24 | 47.22184 | 14.84599 | 3452 ft | 192 kts | 231° |
| 2026-05-07 09:25 | 47.21438 | 14.82928 | 3390 ft | 191 kts | 243° |
| 2026-05-07 09:25 | 47.20953 | 14.81083 | 3293 ft | 196 kts | 257° |
| 2026-05-07 09:25 | 47.20725 | 14.79193 | 2986 ft | 195 kts | 262° |
| 2026-05-07 09:25 | 47.20577 | 14.77223 | 2631 ft | 187 kts | 261° |
| 2026-05-07 09:26 | 47.20374 | 14.75369 | 2279 ft | 182 kts | 259° |
| 2026-05-07 09:26 | 47.20191 | 14.73792 | 2241 ft | 116 kts | 261° |
| 2026-05-07 09:26 | 47.20119 | 14.73196 | 2259 ft | 34 kts | 258° |
| 2026-05-07 09:26 | 47.20077 | 14.72895 | 2266 ft | 26 kts | 252° |
| 2026-05-07 09:27 | 47.19999 | 14.72686 | 2268 ft | 21 kts | 225° |
| 2026-05-07 09:27 | 47.19951 | 14.72625 | 2268 ft | 0 kts | 199° |